createdAt,value
2024-04-21T00:02:21.531Z,81.00
2024-04-21T00:04:49.492Z,81.10
2024-04-21T00:07:17.148Z,81.33
2024-04-21T00:09:44.973Z,81.73
2024-04-21T00:12:12.534Z,82.46
2024-04-21T00:14:40.179Z,82.54
2024-04-21T00:17:07.704Z,82.60
2024-04-21T00:19:35.474Z,83.32
2024-04-21T00:22:02.963Z,83.61
2024-04-21T00:24:31.481Z,84.08
2024-04-21T00:26:58.994Z,83.91
2024-04-21T00:29:26.508Z,84.14
2024-04-21T00:31:53.997Z,84.89
2024-04-21T00:34:21.489Z,84.71
2024-04-21T00:36:50.724Z,84.57
2024-04-21T00:39:18.296Z,84.52
2024-04-21T00:41:46.057Z,84.28
2024-04-21T00:44:13.593Z,84.12
2024-04-21T00:46:41.521Z,84.17
2024-04-21T00:49:10.434Z,84.13
2024-04-21T00:51:38.911Z,84.39
2024-04-21T00:54:07.531Z,84.45
2024-04-21T00:56:35.586Z,84.43
2024-04-21T00:59:03.604Z,84.32
2024-04-21T01:01:31.719Z,84.48
2024-04-21T01:04:00.263Z,84.70
2024-04-21T01:06:28.057Z,84.04
2024-04-21T01:08:55.618Z,84.07
2024-04-21T01:11:23.432Z,83.84
2024-04-21T01:13:51.229Z,83.35
2024-04-21T01:16:23.140Z,83.61
2024-04-21T01:18:50.699Z,83.76
2024-04-21T01:21:19.347Z,83.75
2024-04-21T01:23:46.908Z,83.81
2024-04-21T01:26:14.404Z,83.85
2024-04-21T01:28:41.833Z,83.57
2024-04-21T01:31:09.375Z,83.69
2024-04-21T01:33:36.930Z,84.12
2024-04-21T01:36:04.610Z,84.46
2024-04-21T01:38:32.220Z,84.63
2024-04-21T01:40:59.666Z,84.62
2024-04-21T01:43:27.265Z,84.88
2024-04-21T01:45:54.826Z,84.81
2024-04-21T01:48:22.412Z,84.98
2024-04-21T01:50:49.875Z,84.84
2024-04-21T01:53:17.730Z,84.61
2024-04-21T01:55:45.275Z,84.57
2024-04-21T01:58:12.893Z,84.54
2024-04-21T02:00:40.854Z,84.53
2024-04-21T02:03:08.432Z,84.41
2024-04-21T02:05:36.526Z,84.45
2024-04-21T02:08:04.363Z,84.55
2024-04-21T02:10:31.800Z,84.85
2024-04-21T02:12:59.365Z,85.03
2024-04-21T02:15:26.976Z,85.44
2024-04-21T02:17:54.510Z,85.38
2024-04-21T02:20:21.994Z,85.47
2024-04-21T02:22:49.493Z,85.55
2024-04-21T02:25:18.236Z,85.34
2024-04-21T02:27:46.216Z,85.57
2024-04-21T02:30:13.889Z,85.21
2024-04-21T02:32:41.445Z,85.04
2024-04-21T02:35:08.995Z,85.40
2024-04-21T02:37:36.539Z,85.86
2024-04-21T02:40:04.384Z,86.19
2024-04-21T02:42:31.949Z,86.36
2024-04-21T02:45:00.478Z,86.40
2024-04-21T02:47:28.076Z,86.22
2024-04-21T02:49:55.538Z,84.46
2024-04-21T02:52:23.153Z,83.71
2024-04-21T02:54:50.657Z,83.34
2024-04-21T02:57:18.352Z,83.40
2024-04-21T02:59:45.774Z,83.94
2024-04-21T03:02:13.327Z,82.96
2024-04-21T03:04:40.914Z,82.74
2024-04-21T03:07:08.596Z,82.09
2024-04-21T03:09:36.128Z,81.58
2024-04-21T03:12:03.762Z,81.65
2024-04-21T03:14:31.895Z,81.41
2024-04-21T03:16:59.453Z,81.31
2024-04-21T03:19:27.270Z,81.70
2024-04-21T03:21:55.242Z,81.52
2024-04-21T03:24:23.329Z,82.24
2024-04-21T03:26:51.137Z,82.41
2024-04-21T03:29:18.620Z,82.16
2024-04-21T03:31:46.174Z,82.01
2024-04-21T03:34:13.758Z,81.52
2024-04-21T03:36:41.295Z,81.23
2024-04-21T03:39:08.814Z,82.44
2024-04-21T03:41:36.267Z,81.80
2024-04-21T03:44:04.547Z,81.59
2024-04-21T03:46:32.076Z,81.73
2024-04-21T03:48:59.611Z,81.22
2024-04-21T03:51:27.211Z,81.02
2024-04-21T03:53:54.803Z,80.93
2024-04-21T03:56:22.304Z,81.56
2024-04-21T03:58:49.794Z,81.65
2024-04-21T04:01:17.410Z,81.29
2024-04-21T04:03:45.199Z,81.85
2024-04-21T04:06:12.747Z,81.80
2024-04-21T04:08:40.242Z,81.39
2024-04-21T04:11:07.842Z,81.03
2024-04-21T04:13:35.309Z,81.35
2024-04-21T04:16:03.003Z,81.34
2024-04-21T04:18:30.576Z,81.03
2024-04-21T04:20:58.075Z,81.00
2024-04-21T04:23:25.595Z,81.56
2024-04-21T04:25:53.127Z,81.61
2024-04-21T04:28:21.534Z,81.48
2024-04-21T04:30:49.367Z,81.15
2024-04-21T04:33:17.025Z,81.17
2024-04-21T04:35:45.535Z,80.96
2024-04-21T04:38:13.052Z,80.94
2024-04-21T04:40:40.588Z,81.03
2024-04-21T04:43:08.148Z,81.07
2024-04-21T04:45:36.391Z,80.87
2024-04-21T04:48:04.649Z,80.96
2024-04-21T04:50:32.410Z,80.77
2024-04-21T04:53:00.234Z,80.65
2024-04-21T04:55:27.904Z,80.40
2024-04-21T04:57:55.962Z,80.25
2024-04-21T05:00:23.753Z,80.28
2024-04-21T05:02:51.425Z,80.14
2024-04-21T05:05:19.212Z,80.53
2024-04-21T05:07:46.896Z,80.55
2024-04-21T05:10:15.169Z,80.47
2024-04-21T05:12:42.772Z,80.27
2024-04-21T05:15:10.337Z,80.29
2024-04-21T05:17:37.975Z,80.31
2024-04-21T05:20:06.834Z,80.18
2024-04-21T05:22:34.402Z,79.98
2024-04-21T05:25:02.040Z,80.21
2024-04-21T05:27:32.072Z,80.21
2024-04-21T05:30:00.891Z,79.76
2024-04-21T05:32:28.628Z,79.97
2024-04-21T05:34:56.248Z,79.84
2024-04-21T05:37:23.773Z,80.77
2024-04-21T05:39:52.149Z,80.83
2024-04-21T05:42:19.660Z,81.34
2024-04-21T05:44:49.578Z,80.93
2024-04-21T05:47:17.832Z,81.22
2024-04-21T05:49:46.032Z,81.50
2024-04-21T05:52:15.794Z,81.14
2024-04-21T05:54:43.491Z,81.01
2024-04-21T05:57:11.027Z,80.90
2024-04-21T05:59:38.605Z,81.22
2024-04-21T06:02:06.558Z,82.26
2024-04-21T06:04:34.239Z,82.87
2024-04-21T06:07:01.931Z,83.25
2024-04-21T06:09:29.540Z,82.71
2024-04-21T06:11:57.147Z,83.08
2024-04-21T06:14:24.648Z,83.23
2024-04-21T06:16:52.361Z,83.65
2024-04-21T06:19:21.407Z,84.30
2024-04-21T06:21:49.064Z,84.53
2024-04-21T06:24:16.681Z,84.86
2024-04-21T06:26:45.992Z,84.83
2024-04-21T06:29:15.590Z,85.00
2024-04-21T06:31:43.787Z,85.43
2024-04-21T06:34:11.523Z,85.69
2024-04-21T06:36:39.095Z,85.92
2024-04-21T06:39:06.891Z,85.92
2024-04-21T06:41:34.406Z,86.10
2024-04-21T06:44:01.926Z,86.07
2024-04-21T06:46:29.465Z,86.19
2024-04-21T06:48:57.177Z,86.11
2024-04-21T06:51:25.781Z,85.60
2024-04-21T06:53:53.332Z,84.94
2024-04-21T06:56:20.849Z,85.41
2024-04-21T06:58:48.292Z,86.01
2024-04-21T07:01:15.935Z,86.20
2024-04-21T07:03:43.749Z,86.59
2024-04-21T07:06:11.316Z,86.65
2024-04-21T07:08:38.814Z,86.73
2024-04-21T07:11:06.632Z,86.67
2024-04-21T07:13:34.343Z,86.89
2024-04-21T07:16:01.893Z,87.07
2024-04-21T07:18:29.520Z,87.09
2024-04-21T07:20:57.071Z,87.26
2024-04-21T07:23:24.584Z,87.51
2024-04-21T07:25:52.161Z,87.51
2024-04-21T07:28:19.682Z,87.51
2024-04-21T07:30:48.414Z,87.12
2024-04-21T07:33:15.968Z,86.94
2024-04-21T07:35:44.389Z,87.00
2024-04-21T07:38:11.861Z,87.16
2024-04-21T07:40:39.652Z,87.23
2024-04-21T07:43:07.126Z,87.13
2024-04-21T07:45:34.590Z,87.09
2024-04-21T07:48:02.950Z,86.77
2024-04-21T07:50:33.995Z,86.76
2024-04-21T07:53:01.462Z,85.91
2024-04-21T07:55:29.185Z,85.53
2024-04-21T07:57:56.711Z,85.28
2024-04-21T08:00:24.212Z,84.46
2024-04-21T08:02:51.748Z,84.12
2024-04-21T08:05:19.319Z,84.30
2024-04-21T08:07:46.894Z,84.57
2024-04-21T08:10:14.513Z,84.52
2024-04-21T08:12:42.001Z,84.21
2024-04-21T08:15:09.536Z,83.91
2024-04-21T08:17:37.412Z,83.17
2024-04-21T08:20:06.175Z,82.51
2024-04-21T08:22:34.292Z,82.39
2024-04-21T08:25:03.076Z,82.16
2024-04-21T08:27:30.563Z,82.22
2024-04-21T08:29:58.104Z,82.44
2024-04-21T08:32:25.747Z,82.23
2024-04-21T08:34:53.493Z,81.75
2024-04-21T08:37:24.554Z,81.64
2024-04-21T08:39:52.387Z,81.63
2024-04-21T08:42:20.013Z,81.85
2024-04-21T08:44:49.922Z,81.62
2024-04-21T08:47:17.482Z,81.48
2024-04-21T08:49:45.206Z,81.37
2024-04-21T08:52:12.734Z,81.35
2024-04-21T08:54:40.361Z,81.52
2024-04-21T08:57:08.182Z,81.25
2024-04-21T08:59:41.928Z,81.08
2024-04-21T09:02:13.345Z,80.95
2024-04-21T09:04:45.918Z,81.00
2024-04-21T09:07:14.149Z,80.93
2024-04-21T09:09:41.650Z,80.84
2024-04-21T09:12:09.299Z,80.51
2024-04-21T09:14:43.739Z,80.74
2024-04-21T09:17:11.653Z,80.85
2024-04-21T09:19:39.975Z,80.81
2024-04-21T09:22:07.569Z,80.90
2024-04-21T09:24:35.282Z,80.89
2024-04-21T09:27:02.868Z,80.79
2024-04-21T09:29:30.375Z,80.63
2024-04-21T09:31:57.990Z,80.50
2024-04-21T09:34:25.572Z,80.53
2024-04-21T09:36:56.301Z,80.51
2024-04-21T09:39:24.861Z,80.53
2024-04-21T09:41:55.370Z,80.45
2024-04-21T09:44:23.378Z,80.34
2024-04-21T09:46:51.406Z,80.22
2024-04-21T09:49:20.072Z,80.13
2024-04-21T09:51:49.502Z,80.05
2024-04-21T09:54:20.701Z,79.89
2024-04-21T09:56:53.017Z,79.97
2024-04-21T09:59:23.623Z,80.08
2024-04-21T10:03:38.898Z,80.42
2024-04-21T10:06:07.924Z,80.43
2024-04-21T10:08:37.323Z,80.34
2024-04-21T10:11:04.888Z,80.01
2024-04-21T10:13:33.105Z,79.83
2024-04-21T10:16:00.959Z,79.54
2024-04-21T10:18:28.832Z,79.49
2024-04-21T10:20:56.668Z,79.55
2024-04-21T10:23:24.238Z,79.46
2024-04-21T10:25:53.797Z,79.46
2024-04-21T10:28:28.144Z,79.71
2024-04-21T10:31:06.160Z,79.81
2024-04-21T10:33:34.632Z,80.10
2024-04-21T10:36:02.203Z,80.47
2024-04-21T10:38:29.764Z,80.50
2024-04-21T10:40:58.481Z,80.38
2024-04-21T10:43:26.922Z,80.68
2024-04-21T10:46:01.222Z,80.78
2024-04-21T10:48:28.964Z,80.75
2024-04-21T10:50:57.582Z,80.68
2024-04-21T10:53:25.389Z,80.83
2024-04-21T10:55:55.211Z,80.80
2024-04-21T10:58:23.302Z,80.85
2024-04-21T11:00:51.152Z,80.85
2024-04-21T11:03:18.846Z,80.50
2024-04-21T11:06:01.556Z,80.09
2024-04-21T11:08:29.501Z,79.97
2024-04-21T11:10:57.576Z,79.72
2024-04-21T11:13:25.341Z,79.89
2024-04-21T11:15:53.038Z,79.98
2024-04-21T11:18:20.828Z,80.12
2024-04-21T11:20:48.750Z,79.74
2024-04-21T11:23:19.948Z,79.44
2024-04-21T11:25:47.638Z,79.02
2024-04-21T11:28:17.979Z,78.90
2024-04-21T11:30:45.819Z,79.04
2024-04-21T11:33:13.405Z,79.25
2024-04-21T11:38:09.550Z,79.67
2024-04-21T11:40:40.514Z,79.84
2024-04-21T11:43:11.530Z,80.02
2024-04-21T11:45:43.444Z,80.06
2024-04-21T11:48:11.201Z,80.12
2024-04-21T11:50:39.212Z,80.21
2024-04-21T11:53:07.689Z,80.19
2024-04-21T11:55:35.893Z,80.21
2024-04-21T11:58:05.174Z,80.05
2024-04-21T12:00:32.947Z,80.00
2024-04-21T12:03:00.679Z,80.05
2024-04-21T12:05:28.337Z,79.98
2024-04-21T12:07:55.863Z,80.03
2024-04-21T12:10:23.710Z,79.91
2024-04-21T12:12:51.383Z,79.69
2024-04-21T12:15:19.814Z,79.58
2024-04-21T12:17:47.533Z,79.52
2024-04-21T12:20:15.942Z,79.57
2024-04-21T12:22:49.773Z,79.44
2024-04-21T12:25:17.518Z,79.05
2024-04-21T12:27:45.261Z,78.85
2024-04-21T12:30:13.370Z,78.65
2024-04-21T12:32:41.004Z,78.50
2024-04-21T12:35:08.500Z,78.40
2024-04-21T12:37:36.058Z,78.14
2024-04-21T12:40:03.883Z,78.03
2024-04-21T12:42:31.384Z,77.97
2024-04-21T12:44:59.003Z,77.97
2024-04-21T12:47:26.516Z,77.99
2024-04-21T12:49:54.059Z,77.88
2024-04-21T12:52:21.739Z,77.77
2024-04-21T12:54:49.179Z,77.69
2024-04-21T12:57:16.793Z,77.85
2024-04-21T12:59:46.229Z,77.82
2024-04-21T13:02:17.990Z,78.05
2024-04-21T13:04:46.191Z,78.26
2024-04-21T13:07:13.840Z,78.26
2024-04-21T13:09:41.394Z,77.94
2024-04-21T13:12:09.087Z,77.95
2024-04-21T13:14:36.908Z,78.16
2024-04-21T13:17:04.556Z,78.40
2024-04-21T13:19:32.159Z,78.35
2024-04-21T13:22:00.441Z,78.74
2024-04-21T13:24:27.992Z,78.72
2024-04-21T13:26:55.481Z,78.75
2024-04-21T13:29:23.065Z,78.65
2024-04-21T13:31:50.703Z,78.66
2024-04-21T13:34:18.716Z,78.86
2024-04-21T13:36:46.177Z,78.94
2024-04-21T13:39:13.690Z,78.63
2024-04-21T13:41:41.230Z,78.31
2024-04-21T13:44:08.678Z,78.27
2024-04-21T13:46:36.403Z,78.53
2024-04-21T13:49:04.109Z,78.72
2024-04-21T13:51:33.234Z,78.68
2024-04-21T13:54:01.769Z,78.24
2024-04-21T13:56:29.510Z,78.15
2024-04-21T13:58:57.127Z,78.03
2024-04-21T14:01:24.943Z,77.83
2024-04-21T14:03:52.605Z,77.73
2024-04-21T14:06:21.886Z,77.52
2024-04-21T14:08:50.258Z,77.33
2024-04-21T14:11:18.161Z,77.16
2024-04-21T14:13:45.933Z,77.17
2024-04-21T14:16:13.553Z,77.33
2024-04-21T14:18:41.396Z,77.38
2024-04-21T14:21:08.938Z,77.05
2024-04-21T14:23:36.373Z,77.02
2024-04-21T14:26:04.133Z,77.04
2024-04-21T14:28:33.041Z,77.06
2024-04-21T14:31:01.265Z,77.27
2024-04-21T14:33:29.133Z,77.33
2024-04-21T14:35:56.915Z,77.29
2024-04-21T14:38:24.633Z,77.20
2024-04-21T14:40:52.268Z,77.22
2024-04-21T14:43:21.485Z,77.30
2024-04-21T14:45:49.350Z,77.25
2024-04-21T14:48:18.696Z,77.23
2024-04-21T14:51:08.171Z,77.28
2024-04-21T14:53:35.666Z,77.33
2024-04-21T14:56:06.986Z,77.37
2024-04-21T14:58:34.599Z,77.39
2024-04-21T15:01:02.430Z,77.41
2024-04-21T15:03:30.136Z,77.44
2024-04-21T15:05:57.837Z,77.41
2024-04-21T15:08:25.388Z,77.39
2024-04-21T15:10:52.890Z,77.45
2024-04-21T15:13:20.600Z,77.32
2024-04-21T15:15:48.175Z,77.24
2024-04-21T15:18:15.747Z,77.35
2024-04-21T15:20:47.065Z,77.51
2024-04-21T15:23:14.694Z,77.59
2024-04-21T15:25:44.343Z,77.57
2024-04-21T15:28:12.043Z,77.51
2024-04-21T15:30:39.615Z,77.43
2024-04-21T15:33:07.216Z,77.37
2024-04-21T15:35:34.972Z,77.41
2024-04-21T15:38:02.543Z,77.45
2024-04-21T15:40:30.111Z,77.58
2024-04-21T15:42:57.752Z,77.58
2024-04-21T15:45:25.376Z,77.64
2024-04-21T15:47:52.997Z,77.65
2024-04-21T15:50:20.531Z,77.66
2024-04-21T15:52:48.099Z,77.62
2024-04-21T15:55:16.395Z,77.59
2024-04-21T15:57:43.964Z,77.47
2024-04-21T16:00:12.283Z,77.64
2024-04-21T16:02:39.989Z,77.57
2024-04-21T16:05:08.592Z,77.48
2024-04-21T16:07:36.153Z,77.38
2024-04-21T16:10:04.222Z,77.39
2024-04-21T16:12:31.773Z,77.57
2024-04-21T16:14:59.483Z,77.64
2024-04-21T16:17:27.240Z,77.62
2024-04-21T16:19:54.848Z,77.90
2024-04-21T16:22:22.360Z,78.02
2024-04-21T16:24:49.940Z,78.16
2024-04-21T16:27:17.537Z,78.21
2024-04-21T16:29:45.215Z,78.33
2024-04-21T16:32:12.683Z,78.20
2024-04-21T16:34:40.639Z,78.07
2024-04-21T16:37:09.663Z,78.20
2024-04-21T16:39:37.619Z,78.18
2024-04-21T16:42:05.589Z,78.17
2024-04-21T16:44:33.271Z,78.21
2024-04-21T16:47:01.826Z,78.16
2024-04-21T16:49:29.829Z,78.23
2024-04-21T16:51:58.362Z,78.23
2024-04-21T16:54:26.875Z,78.20
2024-04-21T16:57:06.933Z,78.29
2024-04-21T16:59:42.986Z,78.26
2024-04-21T17:02:10.726Z,78.36
2024-04-21T17:04:41.663Z,78.55
2024-04-21T17:07:10.706Z,78.78
2024-04-21T17:09:38.856Z,78.81
2024-04-21T17:12:06.638Z,78.70
2024-04-21T17:14:34.058Z,78.63
2024-04-21T17:17:01.670Z,78.89
2024-04-21T17:19:30.311Z,78.97
2024-04-21T17:21:57.989Z,79.12
2024-04-21T17:24:25.501Z,79.23
2024-04-21T17:26:53.076Z,79.23
2024-04-21T17:29:21.285Z,79.19
2024-04-21T17:31:48.799Z,79.21
2024-04-21T17:34:19.421Z,79.49
2024-04-21T17:36:47.552Z,79.58
2024-04-21T17:39:15.038Z,79.59
2024-04-21T17:41:42.558Z,79.54
2024-04-21T17:44:10.097Z,79.20
2024-04-21T17:46:38.330Z,78.95
2024-04-21T17:49:06.643Z,79.39
2024-04-21T17:51:34.439Z,79.46
2024-04-21T17:54:01.980Z,79.55
2024-04-21T17:56:29.583Z,79.45
2024-04-21T17:58:57.363Z,79.45
2024-04-21T18:01:27.535Z,79.48
2024-04-21T18:03:55.168Z,79.50
2024-04-21T18:06:22.829Z,79.53
2024-04-21T18:08:50.465Z,79.70
2024-04-21T18:11:21.109Z,79.74
2024-04-21T18:13:48.691Z,79.71
2024-04-21T18:16:16.384Z,79.65
2024-04-21T18:18:44.111Z,79.77
2024-04-21T18:21:12.588Z,79.79
2024-04-21T18:23:40.255Z,79.88
2024-04-21T18:26:07.918Z,79.85
2024-04-21T18:28:35.715Z,79.82
2024-04-21T18:31:03.563Z,79.91
2024-04-21T18:33:31.683Z,79.99
2024-04-21T18:35:59.628Z,80.06
2024-04-21T18:38:27.250Z,80.16
2024-04-21T18:40:56.386Z,80.21
2024-04-21T18:43:23.974Z,80.21
2024-04-21T18:45:51.472Z,80.17
2024-04-21T18:48:19.045Z,80.22
2024-04-21T18:50:47.493Z,80.37
2024-04-21T18:53:17.144Z,80.47
2024-04-21T18:55:44.720Z,80.55
2024-04-21T18:58:13.175Z,80.86
2024-04-21T19:00:40.990Z,81.01
2024-04-21T19:03:08.692Z,81.05
2024-04-21T19:05:42.595Z,81.00
2024-04-21T19:08:10.768Z,81.12
2024-04-21T19:10:39.325Z,81.26
2024-04-21T19:13:07.918Z,81.31
2024-04-21T19:15:35.845Z,81.44
2024-04-21T19:18:03.784Z,81.47
2024-04-21T19:20:31.795Z,81.65
2024-04-21T19:22:59.541Z,81.78
2024-04-21T19:25:28.459Z,81.68
2024-04-21T19:27:56.271Z,81.79
2024-04-21T19:30:23.814Z,81.76
2024-04-21T19:32:51.350Z,82.04
2024-04-21T19:35:18.937Z,82.38
2024-04-21T19:37:46.415Z,82.43
2024-04-21T19:40:14.026Z,82.45
2024-04-21T19:42:44.158Z,82.63
2024-04-21T19:45:11.742Z,82.79
2024-04-21T19:47:39.331Z,82.92
2024-04-21T19:50:07.214Z,82.91
2024-04-21T19:52:38.874Z,82.92
2024-04-21T19:55:07.767Z,82.86
2024-04-21T19:57:38.867Z,83.00
2024-04-21T20:00:07.968Z,83.13
2024-04-21T20:02:36.499Z,83.46
2024-04-21T20:05:05.136Z,83.59
2024-04-21T20:07:36.445Z,84.11
2024-04-21T20:10:05.105Z,84.24
2024-04-21T20:12:33.031Z,84.21
2024-04-21T20:15:19.239Z,84.62
2024-04-21T20:18:05.268Z,84.70
2024-04-21T20:20:33.016Z,84.81
2024-04-21T20:23:00.812Z,84.64
2024-04-21T20:25:28.409Z,84.74
2024-04-21T20:27:55.843Z,84.63
2024-04-21T20:30:23.363Z,84.65
2024-04-21T20:32:50.794Z,84.78
2024-04-21T20:35:18.707Z,84.90
2024-04-21T20:37:46.227Z,84.87
2024-04-21T20:40:14.399Z,85.00
2024-04-21T20:42:41.855Z,85.11
2024-04-21T20:45:09.306Z,85.18
2024-04-21T20:47:36.883Z,85.27
2024-04-21T20:50:04.648Z,85.45
2024-04-21T20:52:34.287Z,85.46
2024-04-21T20:55:01.796Z,85.50
2024-04-21T20:57:31.541Z,85.49
2024-04-21T20:59:59.208Z,85.49
2024-04-21T21:02:26.905Z,85.31
2024-04-21T21:04:54.621Z,85.06
2024-04-21T21:07:22.295Z,84.94
2024-04-21T21:09:49.918Z,85.02
2024-04-21T21:12:17.339Z,85.05
2024-04-21T21:14:44.915Z,85.28
2024-04-21T21:17:12.529Z,85.44
2024-04-21T21:19:40.232Z,85.61
2024-04-21T21:22:07.825Z,85.78
2024-04-21T21:24:35.363Z,85.87
2024-04-21T21:27:02.991Z,85.88
2024-04-21T21:29:30.524Z,85.88
2024-04-21T21:31:58.084Z,85.75
2024-04-21T21:34:26.198Z,85.62
2024-04-21T21:36:53.700Z,85.47
2024-04-21T21:39:21.221Z,85.51
2024-04-21T21:41:48.786Z,85.52
2024-04-21T21:44:16.247Z,85.64
2024-04-21T21:46:43.784Z,85.72
2024-04-21T21:49:11.338Z,85.74
2024-04-21T21:51:39.098Z,85.71
2024-04-21T21:54:06.576Z,85.71
2024-04-21T21:56:34.007Z,85.70
2024-04-21T21:59:01.567Z,85.62
2024-04-21T22:01:29.320Z,85.66
2024-04-21T22:03:57.016Z,85.72
2024-04-21T22:06:24.507Z,85.81
2024-04-21T22:08:52.088Z,85.76
2024-04-21T22:11:19.611Z,85.92
2024-04-21T22:13:48.504Z,85.93
2024-04-21T22:16:37.021Z,85.91
2024-04-21T22:19:05.054Z,85.80
2024-04-21T22:21:32.575Z,85.70
2024-04-21T22:24:00.141Z,85.49
2024-04-21T22:26:27.605Z,85.47
2024-04-21T22:28:55.288Z,85.55
2024-04-21T22:31:23.556Z,85.59
2024-04-21T22:33:51.043Z,85.53
2024-04-21T22:36:18.580Z,85.50
2024-04-21T22:38:46.074Z,85.55
2024-04-21T22:41:13.612Z,85.47
2024-04-21T22:43:41.147Z,85.32
2024-04-21T22:46:09.677Z,85.03
2024-04-21T22:48:38.266Z,84.85
2024-04-21T22:51:06.297Z,84.76
2024-04-21T22:53:34.514Z,84.76
2024-04-21T22:56:02.206Z,84.85
2024-04-21T22:58:30.036Z,84.92
2024-04-21T23:00:57.827Z,84.90
2024-04-21T23:03:25.610Z,84.72
2024-04-21T23:06:00.125Z,84.73
2024-04-21T23:08:39.623Z,84.89
2024-04-21T23:11:07.261Z,84.98
2024-04-21T23:13:34.834Z,85.09
2024-04-21T23:16:05.895Z,85.20
2024-04-21T23:18:33.533Z,85.10
2024-04-21T23:21:01.082Z,84.92
2024-04-21T23:23:28.614Z,84.94
2024-04-21T23:25:56.150Z,84.85
2024-04-21T23:28:23.807Z,84.86
2024-04-21T23:30:51.320Z,84.90
2024-04-21T23:33:18.916Z,84.90
2024-04-21T23:35:46.618Z,84.86
2024-04-21T23:38:14.196Z,84.83
2024-04-21T23:40:41.763Z,84.76
2024-04-21T23:43:09.340Z,84.81
2024-04-21T23:45:40.556Z,84.78
2024-04-21T23:48:08.254Z,84.73
2024-04-21T23:50:35.858Z,84.65
2024-04-21T23:53:03.456Z,84.60
2024-04-21T23:55:31.008Z,84.55
2024-04-21T23:57:58.537Z,84.44
